sensor_id;sensor_type;location;lat;lon;timestamp;P1;durP1;ratioP1;P2;durP2;ratioP2
14520;SDS011;7347;50.844;4.490;2023-04-06T07:23:55;8.73;;;3.97;;
14520;SDS011;7347;50.844;4.490;2023-04-06T07:26:22;10.97;;;3.87;;
14520;SDS011;7347;50.844;4.490;2023-04-06T07:28:49;7.77;;;4.23;;
14520;SDS011;7347;50.844;4.490;2023-04-06T07:31:15;5.73;;;3.23;;
14520;SDS011;7347;50.844;4.490;2023-04-06T07:33:43;7.77;;;4.07;;
14520;SDS011;7347;50.844;4.490;2023-04-06T07:36:10;11.93;;;4.40;;
14520;SDS011;7347;50.844;4.490;2023-04-06T07:38:37;10.57;;;3.83;;
14520;SDS011;7347;50.844;4.490;2023-04-06T07:41:05;10.50;;;4.17;;
14520;SDS011;7347;50.844;4.490;2023-04-06T07:43:32;6.47;;;3.60;;
14520;SDS011;7347;50.844;4.490;2023-04-06T07:45:59;6.00;;;3.37;;
14520;SDS011;7347;50.844;4.490;2023-04-06T07:48:27;7.93;;;3.40;;
14520;SDS011;7347;50.844;4.490;2023-04-06T07:51:00;7.73;;;3.20;;
14520;SDS011;7347;50.844;4.490;2023-04-06T07:53:28;7.73;;;3.40;;
14520;SDS011;7347;50.844;4.490;2023-04-06T07:55:55;8.40;;;3.87;;
14520;SDS011;7347;50.844;4.490;2023-04-06T07:58:23;7.00;;;3.37;;
14520;SDS011;7347;50.844;4.490;2023-04-06T08:00:51;8.67;;;3.63;;
14520;SDS011;7347;50.844;4.490;2023-04-06T08:03:18;7.63;;;3.10;;
14520;SDS011;7347;50.844;4.490;2023-04-06T08:05:46;5.27;;;3.17;;
14520;SDS011;7347;50.844;4.490;2023-04-06T08:08:13;8.57;;;3.13;;
14520;SDS011;7347;50.844;4.490;2023-04-06T08:10:40;7.40;;;3.20;;
14520;SDS011;7347;50.844;4.490;2023-04-06T08:13:07;6.27;;;3.20;;
14520;SDS011;7347;50.844;4.490;2023-04-06T08:15:36;7.67;;;3.17;;
14520;SDS011;7347;50.844;4.490;2023-04-06T08:18:03;6.50;;;3.00;;
14520;SDS011;7347;50.844;4.490;2023-04-06T08:20:30;6.97;;;3.13;;
14520;SDS011;7347;50.844;4.490;2023-04-06T08:22:57;7.00;;;3.30;;
14520;SDS011;7347;50.844;4.490;2023-04-06T08:25:24;6.40;;;2.93;;
14520;SDS011;7347;50.844;4.490;2023-04-06T08:27:51;6.60;;;3.23;;
14520;SDS011;7347;50.844;4.490;2023-04-06T08:30:18;7.03;;;2.97;;
14520;SDS011;7347;50.844;4.490;2023-04-06T08:32:46;6.23;;;3.07;;
14520;SDS011;7347;50.844;4.490;2023-04-06T08:35:13;7.47;;;3.33;;
14520;SDS011;7347;50.844;4.490;2023-04-06T08:37:40;5.07;;;2.93;;
14520;SDS011;7347;50.844;4.490;2023-04-06T08:40:07;6.93;;;2.90;;
14520;SDS011;7347;50.844;4.490;2023-04-06T08:42:38;7.43;;;2.73;;
14520;SDS011;7347;50.844;4.490;2023-04-06T08:45:07;6.73;;;2.83;;
14520;SDS011;7347;50.844;4.490;2023-04-06T08:47:35;6.10;;;2.77;;
14520;SDS011;7347;50.844;4.490;2023-04-06T08:50:04;7.33;;;3.53;;
14520;SDS011;7347;50.844;4.490;2023-04-06T08:52:33;8.10;;;2.93;;
14520;SDS011;7347;50.844;4.490;2023-04-06T08:55:00;5.47;;;3.10;;
14520;SDS011;7347;50.844;4.490;2023-04-06T08:57:28;7.10;;;3.67;;
14520;SDS011;7347;50.844;4.490;2023-04-06T08:59:57;10.43;;;3.40;;
14520;SDS011;7347;50.844;4.490;2023-04-06T09:02:26;5.97;;;2.77;;
14520;SDS011;7347;50.844;4.490;2023-04-06T09:04:53;5.93;;;3.27;;
14520;SDS011;7347;50.844;4.490;2023-04-06T09:07:22;7.53;;;3.00;;
14520;SDS011;7347;50.844;4.490;2023-04-06T09:09:50;8.17;;;3.70;;
14520;SDS011;7347;50.844;4.490;2023-04-06T09:12:23;6.00;;;3.33;;
14520;SDS011;7347;50.844;4.490;2023-04-06T09:14:51;6.43;;;3.13;;
14520;SDS011;7347;50.844;4.490;2023-04-06T09:17:22;7.90;;;3.13;;
14520;SDS011;7347;50.844;4.490;2023-04-06T09:19:49;7.30;;;3.37;;
14520;SDS011;7347;50.844;4.490;2023-04-06T09:22:16;7.80;;;3.77;;
14520;SDS011;7347;50.844;4.490;2023-04-06T09:24:46;10.27;;;3.30;;
14520;SDS011;7347;50.844;4.490;2023-04-06T09:27:14;8.07;;;3.40;;
14520;SDS011;7347;50.844;4.490;2023-04-06T09:29:41;9.47;;;3.47;;
14520;SDS011;7347;50.844;4.490;2023-04-06T09:32:10;7.53;;;3.50;;
14520;SDS011;7347;50.844;4.490;2023-04-06T09:34:41;7.03;;;3.90;;
14520;SDS011;7347;50.844;4.490;2023-04-06T09:37:13;9.37;;;3.33;;
14520;SDS011;7347;50.844;4.490;2023-04-06T09:39:41;7.00;;;3.97;;
14520;SDS011;7347;50.844;4.490;2023-04-06T09:42:09;7.53;;;4.23;;
14520;SDS011;7347;50.844;4.490;2023-04-06T09:44:38;6.43;;;3.80;;
14520;SDS011;7347;50.844;4.490;2023-04-06T09:47:06;6.67;;;3.40;;
14520;SDS011;7347;50.844;4.490;2023-04-06T09:49:34;6.47;;;3.53;;
14520;SDS011;7347;50.844;4.490;2023-04-06T09:52:01;7.13;;;3.57;;
14520;SDS011;7347;50.844;4.490;2023-04-06T09:54:30;7.80;;;3.73;;
14520;SDS011;7347;50.844;4.490;2023-04-06T09:57:00;8.40;;;3.77;;
14520;SDS011;7347;50.844;4.490;2023-04-06T09:59:36;6.43;;;3.47;;
14520;SDS011;7347;50.844;4.490;2023-04-06T10:02:08;9.50;;;3.73;;
14520;SDS011;7347;50.844;4.490;2023-04-06T10:04:48;7.30;;;3.43;;
14520;SDS011;7347;50.844;4.490;2023-04-06T10:07:21;7.27;;;3.80;;
14520;SDS011;7347;50.844;4.490;2023-04-06T10:09:49;7.40;;;3.67;;
14520;SDS011;7347;50.844;4.490;2023-04-06T10:12:17;6.93;;;3.60;;
14520;SDS011;7347;50.844;4.490;2023-04-06T10:14:45;7.70;;;3.47;;
14520;SDS011;7347;50.844;4.490;2023-04-06T10:17:13;6.10;;;3.33;;
14520;SDS011;7347;50.844;4.490;2023-04-06T10:19:42;9.20;;;3.33;;
14520;SDS011;7347;50.844;4.490;2023-04-06T10:22:18;7.93;;;3.03;;
14520;SDS011;7347;50.844;4.490;2023-04-06T10:24:50;7.77;;;2.97;;
14520;SDS011;7347;50.844;4.490;2023-04-06T10:27:26;6.00;;;3.20;;
14520;SDS011;7347;50.844;4.490;2023-04-06T10:30:00;7.80;;;3.13;;
14520;SDS011;7347;50.844;4.490;2023-04-06T10:32:32;6.07;;;3.00;;
14520;SDS011;7347;50.844;4.490;2023-04-06T10:35:07;7.23;;;3.27;;
14520;SDS011;7347;50.844;4.490;2023-04-06T10:37:47;5.30;;;3.10;;
14520;SDS011;7347;50.844;4.490;2023-04-06T10:40:18;5.23;;;2.90;;
14520;SDS011;7347;50.844;4.490;2023-04-06T10:42:47;5.13;;;2.60;;
14520;SDS011;7347;50.844;4.490;2023-04-06T10:45:20;7.50;;;4.10;;
14520;SDS011;7347;50.844;4.490;2023-04-06T10:47:48;5.93;;;3.20;;
14520;SDS011;7347;50.844;4.490;2023-04-06T10:50:16;7.03;;;3.73;;
14520;SDS011;7347;50.844;4.490;2023-04-06T10:52:44;7.93;;;4.03;;
14520;SDS011;7347;50.844;4.490;2023-04-06T10:55:12;6.83;;;3.60;;
14520;SDS011;7347;50.844;4.490;2023-04-06T10:57:40;6.07;;;3.63;;
14520;SDS011;7347;50.844;4.490;2023-04-06T11:00:08;7.37;;;3.37;;
14520;SDS011;7347;50.844;4.490;2023-04-06T11:02:39;7.80;;;3.80;;
14520;SDS011;7347;50.844;4.490;2023-04-06T11:05:07;7.13;;;3.80;;
14520;SDS011;7347;50.844;4.490;2023-04-06T11:07:34;6.67;;;4.03;;
14520;SDS011;7347;50.844;4.490;2023-04-06T11:10:01;8.67;;;4.17;;
14520;SDS011;7347;50.844;4.490;2023-04-06T11:12:28;5.63;;;3.07;;
14520;SDS011;7347;50.844;4.490;2023-04-06T11:14:56;9.30;;;3.60;;
14520;SDS011;7347;50.844;4.490;2023-04-06T11:17:29;7.60;;;4.07;;
14520;SDS011;7347;50.844;4.490;2023-04-06T11:19:58;6.23;;;3.53;;
14520;SDS011;7347;50.844;4.490;2023-04-06T11:22:25;8.50;;;3.73;;
14520;SDS011;7347;50.844;4.490;2023-04-06T11:24:52;6.13;;;3.23;;
14520;SDS011;7347;50.844;4.490;2023-04-06T11:27:30;8.80;;;3.53;;
14520;SDS011;7347;50.844;4.490;2023-04-06T11:29:57;6.70;;;2.83;;
14520;SDS011;7347;50.844;4.490;2023-04-06T11:32:25;5.70;;;3.40;;
14520;SDS011;7347;50.844;4.490;2023-04-06T11:34:52;6.70;;;3.43;;
14520;SDS011;7347;50.844;4.490;2023-04-06T11:37:20;8.27;;;3.40;;
14520;SDS011;7347;50.844;4.490;2023-04-06T11:39:48;7.47;;;3.47;;
14520;SDS011;7347;50.844;4.490;2023-04-06T11:42:21;4.67;;;2.67;;
14520;SDS011;7347;50.844;4.490;2023-04-06T11:44:50;6.50;;;3.30;;
14520;SDS011;7347;50.844;4.490;2023-04-06T11:47:18;5.77;;;3.17;;
14520;SDS011;7347;50.844;4.490;2023-04-06T11:49:47;9.33;;;3.23;;
14520;SDS011;7347;50.844;4.490;2023-04-06T11:52:15;7.77;;;3.60;;
14520;SDS011;7347;50.844;4.490;2023-04-06T11:54:45;9.60;;;3.63;;
14520;SDS011;7347;50.844;4.490;2023-04-06T11:57:13;7.07;;;2.90;;
14520;SDS011;7347;50.844;4.490;2023-04-06T11:59:41;7.90;;;3.87;;
14520;SDS011;7347;50.844;4.490;2023-04-06T12:02:08;5.97;;;3.30;;
14520;SDS011;7347;50.844;4.490;2023-04-06T12:04:36;6.43;;;3.20;;
14520;SDS011;7347;50.844;4.490;2023-04-06T12:07:03;7.23;;;2.87;;
14520;SDS011;7347;50.844;4.490;2023-04-06T12:09:30;6.57;;;2.87;;
14520;SDS011;7347;50.844;4.490;2023-04-06T12:12:01;6.20;;;3.43;;
14520;SDS011;7347;50.844;4.490;2023-04-06T12:14:28;5.80;;;3.03;;
14520;SDS011;7347;50.844;4.490;2023-04-06T12:16:55;5.47;;;2.60;;
14520;SDS011;7347;50.844;4.490;2023-04-06T12:19:22;6.60;;;3.50;;
14520;SDS011;7347;50.844;4.490;2023-04-06T12:21:50;4.73;;;2.97;;
14520;SDS011;7347;50.844;4.490;2023-04-06T12:24:18;5.80;;;2.77;;
14520;SDS011;7347;50.844;4.490;2023-04-06T12:26:45;5.23;;;3.40;;
14520;SDS011;7347;50.844;4.490;2023-04-06T12:29:14;6.07;;;3.13;;
14520;SDS011;7347;50.844;4.490;2023-04-06T12:31:40;6.37;;;2.93;;
14520;SDS011;7347;50.844;4.490;2023-04-06T12:34:09;5.40;;;3.40;;
14520;SDS011;7347;50.844;4.490;2023-04-06T12:36:36;6.10;;;3.20;;
14520;SDS011;7347;50.844;4.490;2023-04-06T12:39:04;7.37;;;2.47;;
14520;SDS011;7347;50.844;4.490;2023-04-06T12:41:31;5.43;;;3.03;;
14520;SDS011;7347;50.844;4.490;2023-04-06T12:43:58;5.63;;;2.90;;
14520;SDS011;7347;50.844;4.490;2023-04-06T12:46:26;6.17;;;2.87;;
14520;SDS011;7347;50.844;4.490;2023-04-06T12:48:54;6.93;;;3.37;;
14520;SDS011;7347;50.844;4.490;2023-04-06T12:51:22;6.50;;;3.20;;
14520;SDS011;7347;50.844;4.490;2023-04-06T12:53:50;5.07;;;3.00;;
14520;SDS011;7347;50.844;4.490;2023-04-06T12:56:17;6.67;;;3.07;;
14520;SDS011;7347;50.844;4.490;2023-04-06T12:58:46;8.57;;;3.30;;
14520;SDS011;7347;50.844;4.490;2023-04-06T13:01:13;7.30;;;3.43;;
14520;SDS011;7347;50.844;4.490;2023-04-06T13:03:42;6.30;;;3.23;;
14520;SDS011;7347;50.844;4.490;2023-04-06T13:06:10;4.93;;;3.20;;
14520;SDS011;7347;50.844;4.490;2023-04-06T13:08:38;5.57;;;3.13;;
14520;SDS011;7347;50.844;4.490;2023-04-06T13:11:05;6.57;;;3.67;;
14520;SDS011;7347;50.844;4.490;2023-04-06T13:13:33;4.67;;;2.77;;
14520;SDS011;7347;50.844;4.490;2023-04-06T13:16:02;5.27;;;3.00;;
14520;SDS011;7347;50.844;4.490;2023-04-06T13:18:30;7.63;;;3.83;;
14520;SDS011;7347;50.844;4.490;2023-04-06T13:20:59;7.43;;;3.50;;
14520;SDS011;7347;50.844;4.490;2023-04-06T13:23:26;7.40;;;3.60;;
14520;SDS011;7347;50.844;4.490;2023-04-06T13:25:59;6.43;;;3.47;;
14520;SDS011;7347;50.844;4.490;2023-04-06T13:28:27;8.50;;;3.47;;
14520;SDS011;7347;50.844;4.490;2023-04-06T13:30:54;8.90;;;4.30;;
14520;SDS011;7347;50.844;4.490;2023-04-06T13:33:22;7.83;;;3.83;;
14520;SDS011;7347;50.844;4.490;2023-04-06T13:35:49;7.10;;;3.70;;
14520;SDS011;7347;50.844;4.490;2023-04-06T13:38:17;7.47;;;4.27;;
14520;SDS011;7347;50.844;4.490;2023-04-06T13:40:44;7.57;;;4.17;;
14520;SDS011;7347;50.844;4.490;2023-04-06T13:43:12;5.83;;;3.73;;
14520;SDS011;7347;50.844;4.490;2023-04-06T13:45:39;6.83;;;3.87;;
14520;SDS011;7347;50.844;4.490;2023-04-06T13:48:05;7.73;;;3.80;;
14520;SDS011;7347;50.844;4.490;2023-04-06T13:50:32;5.97;;;3.60;;
14520;SDS011;7347;50.844;4.490;2023-04-06T13:53:00;6.97;;;3.77;;
14520;SDS011;7347;50.844;4.490;2023-04-06T13:55:28;7.97;;;3.87;;
14520;SDS011;7347;50.844;4.490;2023-04-06T13:57:56;7.67;;;4.13;;
14520;SDS011;7347;50.844;4.490;2023-04-06T14:00:23;8.43;;;4.30;;
14520;SDS011;7347;50.844;4.490;2023-04-06T14:02:50;7.67;;;3.63;;
14520;SDS011;7347;50.844;4.490;2023-04-06T14:05:19;6.47;;;3.87;;
14520;SDS011;7347;50.844;4.490;2023-04-06T14:07:46;7.73;;;3.97;;
14520;SDS011;7347;50.844;4.490;2023-04-06T14:10:13;8.00;;;3.73;;
14520;SDS011;7347;50.844;4.490;2023-04-06T14:12:41;7.23;;;4.20;;
14520;SDS011;7347;50.844;4.490;2023-04-06T14:15:10;7.10;;;3.90;;
14520;SDS011;7347;50.844;4.490;2023-04-06T14:17:37;7.53;;;4.30;;
14520;SDS011;7347;50.844;4.490;2023-04-06T14:20:05;7.37;;;4.53;;
14520;SDS011;7347;50.844;4.490;2023-04-06T14:22:32;6.70;;;4.40;;
14520;SDS011;7347;50.844;4.490;2023-04-06T14:25:00;6.10;;;4.20;;
14520;SDS011;7347;50.844;4.490;2023-04-06T14:27:27;6.93;;;3.80;;
14520;SDS011;7347;50.844;4.490;2023-04-06T14:29:55;6.17;;;3.67;;
14520;SDS011;7347;50.844;4.490;2023-04-06T14:32:22;6.30;;;3.60;;
14520;SDS011;7347;50.844;4.490;2023-04-06T14:34:49;7.13;;;3.90;;
14520;SDS011;7347;50.844;4.490;2023-04-06T14:37:16;6.60;;;3.57;;
14520;SDS011;7347;50.844;4.490;2023-04-06T14:39:43;8.70;;;3.90;;
14520;SDS011;7347;50.844;4.490;2023-04-06T14:42:10;6.70;;;4.20;;
14520;SDS011;7347;50.844;4.490;2023-04-06T14:44:37;7.10;;;3.53;;
14520;SDS011;7347;50.844;4.490;2023-04-06T14:47:09;10.30;;;4.23;;
14520;SDS011;7347;50.844;4.490;2023-04-06T14:49:36;7.43;;;3.93;;
14520;SDS011;7347;50.844;4.490;2023-04-06T14:52:03;7.00;;;3.77;;
14520;SDS011;7347;50.844;4.490;2023-04-06T14:54:31;10.03;;;3.50;;
14520;SDS011;7347;50.844;4.490;2023-04-06T14:56:57;6.43;;;3.90;;
14520;SDS011;7347;50.844;4.490;2023-04-06T14:59:25;7.77;;;4.30;;
14520;SDS011;7347;50.844;4.490;2023-04-06T15:01:52;7.23;;;4.13;;
14520;SDS011;7347;50.844;4.490;2023-04-06T15:04:20;7.47;;;3.90;;
14520;SDS011;7347;50.844;4.490;2023-04-06T15:06:47;8.20;;;4.13;;
14520;SDS011;7347;50.844;4.490;2023-04-06T15:09:14;8.70;;;4.03;;
14520;SDS011;7347;50.844;4.490;2023-04-06T15:11:41;11.20;;;5.23;;
14520;SDS011;7347;50.844;4.490;2023-04-06T15:14:08;8.63;;;4.63;;
14520;SDS011;7347;50.844;4.490;2023-04-06T15:16:34;7.00;;;4.80;;
14520;SDS011;7347;50.844;4.490;2023-04-06T15:19:01;7.50;;;4.40;;
14520;SDS011;7347;50.844;4.490;2023-04-06T15:21:29;8.57;;;4.10;;
14520;SDS011;7347;50.844;4.490;2023-04-06T15:23:57;8.30;;;4.50;;
14520;SDS011;7347;50.844;4.490;2023-04-06T15:26:24;8.30;;;4.17;;
14520;SDS011;7347;50.844;4.490;2023-04-06T15:28:51;6.87;;;3.90;;
14520;SDS011;7347;50.844;4.490;2023-04-06T15:31:18;8.67;;;4.57;;
14520;SDS011;7347;50.844;4.490;2023-04-06T15:33:46;9.80;;;4.00;;
14520;SDS011;7347;50.844;4.490;2023-04-06T15:36:17;6.73;;;4.40;;
14520;SDS011;7347;50.844;4.490;2023-04-06T15:38:51;7.67;;;4.30;;
14520;SDS011;7347;50.844;4.490;2023-04-06T15:41:17;7.50;;;4.70;;
14520;SDS011;7347;50.844;4.490;2023-04-06T15:43:45;6.80;;;3.97;;
14520;SDS011;7347;50.844;4.490;2023-04-06T15:46:11;8.30;;;4.33;;
14520;SDS011;7347;50.844;4.490;2023-04-06T15:48:40;7.80;;;4.13;;
14520;SDS011;7347;50.844;4.490;2023-04-06T15:51:07;8.83;;;4.33;;
14520;SDS011;7347;50.844;4.490;2023-04-06T15:53:34;8.43;;;4.40;;
14520;SDS011;7347;50.844;4.490;2023-04-06T15:56:02;7.80;;;4.50;;
14520;SDS011;7347;50.844;4.490;2023-04-06T15:58:31;7.90;;;4.40;;
14520;SDS011;7347;50.844;4.490;2023-04-06T16:00:58;11.53;;;5.40;;
14520;SDS011;7347;50.844;4.490;2023-04-06T16:03:25;6.67;;;4.10;;
14520;SDS011;7347;50.844;4.490;2023-04-06T16:05:53;8.13;;;4.77;;
14520;SDS011;7347;50.844;4.490;2023-04-06T16:08:20;7.07;;;4.17;;
14520;SDS011;7347;50.844;4.490;2023-04-06T16:10:47;10.37;;;4.93;;
14520;SDS011;7347;50.844;4.490;2023-04-06T16:13:15;13.47;;;7.30;;
14520;SDS011;7347;50.844;4.490;2023-04-06T16:15:42;8.00;;;4.90;;
14520;SDS011;7347;50.844;4.490;2023-04-06T16:18:09;8.73;;;4.90;;
14520;SDS011;7347;50.844;4.490;2023-04-06T16:20:35;10.57;;;5.50;;
14520;SDS011;7347;50.844;4.490;2023-04-06T16:23:02;11.73;;;5.90;;
14520;SDS011;7347;50.844;4.490;2023-04-06T16:25:29;11.20;;;5.30;;
14520;SDS011;7347;50.844;4.490;2023-04-06T16:27:56;9.53;;;4.97;;
14520;SDS011;7347;50.844;4.490;2023-04-06T16:30:24;10.43;;;5.00;;
14520;SDS011;7347;50.844;4.490;2023-04-06T16:32:54;9.07;;;5.00;;
14520;SDS011;7347;50.844;4.490;2023-04-06T16:35:21;10.13;;;5.40;;
14520;SDS011;7347;50.844;4.490;2023-04-06T16:37:50;7.83;;;5.03;;
14520;SDS011;7347;50.844;4.490;2023-04-06T16:40:17;9.93;;;4.90;;
14520;SDS011;7347;50.844;4.490;2023-04-06T16:42:45;14.00;;;5.73;;
14520;SDS011;7347;50.844;4.490;2023-04-06T16:45:12;10.40;;;5.47;;
14520;SDS011;7347;50.844;4.490;2023-04-06T16:47:41;10.03;;;6.03;;
14520;SDS011;7347;50.844;4.490;2023-04-06T16:50:08;8.63;;;5.23;;
14520;SDS011;7347;50.844;4.490;2023-04-06T16:52:35;8.83;;;5.23;;
14520;SDS011;7347;50.844;4.490;2023-04-06T16:55:02;9.00;;;4.83;;
14520;SDS011;7347;50.844;4.490;2023-04-06T16:57:30;9.13;;;4.40;;
14520;SDS011;7347;50.844;4.490;2023-04-06T16:59:58;9.10;;;4.73;;
14520;SDS011;7347;50.844;4.490;2023-04-06T17:02:25;7.20;;;4.07;;
14520;SDS011;7347;50.844;4.490;2023-04-06T17:04:53;12.53;;;5.30;;
14520;SDS011;7347;50.844;4.490;2023-04-06T17:07:20;11.07;;;4.90;;
14520;SDS011;7347;50.844;4.490;2023-04-06T17:09:50;9.53;;;3.50;;
14520;SDS011;7347;50.844;4.490;2023-04-06T17:12:17;7.07;;;3.40;;
14520;SDS011;7347;50.844;4.490;2023-04-06T17:14:44;8.97;;;3.93;;
14520;SDS011;7347;50.844;4.490;2023-04-06T17:17:10;10.77;;;3.20;;
14520;SDS011;7347;50.844;4.490;2023-04-06T17:19:37;10.50;;;2.67;;
14520;SDS011;7347;50.844;4.490;2023-04-06T17:22:05;11.07;;;3.90;;
14520;SDS011;7347;50.844;4.490;2023-04-06T17:24:32;8.87;;;2.90;;
14520;SDS011;7347;50.844;4.490;2023-04-06T17:26:59;5.60;;;2.60;;
14520;SDS011;7347;50.844;4.490;2023-04-06T17:29:26;7.37;;;2.50;;
14520;SDS011;7347;50.844;4.490;2023-04-06T17:31:53;9.07;;;3.00;;
14520;SDS011;7347;50.844;4.490;2023-04-06T17:34:20;5.40;;;2.30;;
14520;SDS011;7347;50.844;4.490;2023-04-06T17:36:47;7.40;;;2.30;;
14520;SDS011;7347;50.844;4.490;2023-04-06T17:39:15;8.03;;;2.63;;
14520;SDS011;7347;50.844;4.490;2023-04-06T17:41:42;7.57;;;2.33;;
14520;SDS011;7347;50.844;4.490;2023-04-06T17:44:09;5.40;;;2.30;;
14520;SDS011;7347;50.844;4.490;2023-04-06T17:46:36;6.23;;;2.30;;
14520;SDS011;7347;50.844;4.490;2023-04-06T17:49:03;4.57;;;2.40;;
14520;SDS011;7347;50.844;4.490;2023-04-06T17:51:32;4.40;;;2.03;;
14520;SDS011;7347;50.844;4.490;2023-04-06T17:53:59;8.37;;;1.87;;
14520;SDS011;7347;50.844;4.490;2023-04-06T17:56:27;5.40;;;1.80;;
14520;SDS011;7347;50.844;4.490;2023-04-06T17:58:54;6.80;;;1.90;;
14520;SDS011;7347;50.844;4.490;2023-04-06T18:01:21;5.80;;;1.83;;
14520;SDS011;7347;50.844;4.490;2023-04-06T18:03:48;9.93;;;2.03;;
14520;SDS011;7347;50.844;4.490;2023-04-06T18:06:15;9.00;;;2.43;;
14520;SDS011;7347;50.844;4.490;2023-04-06T18:08:42;8.57;;;4.03;;
14520;SDS011;7347;50.844;4.490;2023-04-06T18:11:13;6.83;;;1.70;;
14520;SDS011;7347;50.844;4.490;2023-04-06T18:13:42;9.00;;;2.47;;
14520;SDS011;7347;50.844;4.490;2023-04-06T18:16:09;12.27;;;2.87;;
14520;SDS011;7347;50.844;4.490;2023-04-06T18:18:36;5.93;;;2.30;;
14520;SDS011;7347;50.844;4.490;2023-04-06T18:21:03;8.73;;;2.20;;
14520;SDS011;7347;50.844;4.490;2023-04-06T18:23:31;5.53;;;2.00;;
14520;SDS011;7347;50.844;4.490;2023-04-06T18:25:58;7.83;;;2.37;;
14520;SDS011;7347;50.844;4.490;2023-04-06T18:28:25;10.07;;;2.73;;
14520;SDS011;7347;50.844;4.490;2023-04-06T18:30:54;8.73;;;2.20;;
14520;SDS011;7347;50.844;4.490;2023-04-06T18:33:20;8.50;;;2.30;;
14520;SDS011;7347;50.844;4.490;2023-04-06T18:35:47;10.73;;;2.40;;
14520;SDS011;7347;50.844;4.490;2023-04-06T18:38:14;6.70;;;2.33;;
14520;SDS011;7347;50.844;4.490;2023-04-06T18:40:41;7.47;;;2.43;;
14520;SDS011;7347;50.844;4.490;2023-04-06T18:43:08;6.23;;;2.40;;
14520;SDS011;7347;50.844;4.490;2023-04-06T18:45:35;9.80;;;3.67;;
14520;SDS011;7347;50.844;4.490;2023-04-06T18:48:05;10.27;;;3.87;;
14520;SDS011;7347;50.844;4.490;2023-04-06T18:50:32;6.67;;;2.57;;
14520;SDS011;7347;50.844;4.490;2023-04-06T18:52:59;7.27;;;2.77;;
14520;SDS011;7347;50.844;4.490;2023-04-06T18:55:26;11.27;;;3.30;;
14520;SDS011;7347;50.844;4.490;2023-04-06T18:57:53;10.90;;;3.17;;
14520;SDS011;7347;50.844;4.490;2023-04-06T19:00:20;9.03;;;2.33;;
14520;SDS011;7347;50.844;4.490;2023-04-06T19:02:46;9.97;;;2.43;;
14520;SDS011;7347;50.844;4.490;2023-04-06T19:05:14;8.57;;;2.53;;
14520;SDS011;7347;50.844;4.490;2023-04-06T19:07:41;10.93;;;2.77;;
14520;SDS011;7347;50.844;4.490;2023-04-06T19:10:12;6.47;;;2.77;;
14520;SDS011;7347;50.844;4.490;2023-04-06T19:12:38;6.47;;;3.13;;
14520;SDS011;7347;50.844;4.490;2023-04-06T19:15:06;7.20;;;2.47;;
14520;SDS011;7347;50.844;4.490;2023-04-06T19:17:33;8.40;;;3.40;;
14520;SDS011;7347;50.844;4.490;2023-04-06T19:20:01;9.13;;;2.00;;
14520;SDS011;7347;50.844;4.490;2023-04-06T19:22:30;5.83;;;2.30;;
14520;SDS011;7347;50.844;4.490;2023-04-06T19:24:59;3.97;;;1.80;;
14520;SDS011;7347;50.844;4.490;2023-04-06T19:27:26;4.80;;;2.73;;
14520;SDS011;7347;50.844;4.490;2023-04-06T19:29:53;4.03;;;2.03;;
14520;SDS011;7347;50.844;4.490;2023-04-06T19:32:19;5.60;;;3.00;;
14520;SDS011;7347;50.844;4.490;2023-04-06T19:34:47;4.90;;;2.70;;
14520;SDS011;7347;50.844;4.490;2023-04-06T19:37:13;3.70;;;1.80;;
14520;SDS011;7347;50.844;4.490;2023-04-06T19:39:42;6.80;;;2.83;;
14520;SDS011;7347;50.844;4.490;2023-04-06T19:42:09;6.80;;;3.33;;
14520;SDS011;7347;50.844;4.490;2023-04-06T19:44:38;7.53;;;2.43;;
14520;SDS011;7347;50.844;4.490;2023-04-06T19:47:05;5.43;;;2.67;;
14520;SDS011;7347;50.844;4.490;2023-04-06T19:49:31;8.17;;;2.90;;
14520;SDS011;7347;50.844;4.490;2023-04-06T19:51:58;5.60;;;2.30;;
14520;SDS011;7347;50.844;4.490;2023-04-06T19:54:25;6.03;;;2.90;;
14520;SDS011;7347;50.844;4.490;2023-04-06T19:56:53;8.97;;;3.07;;
14520;SDS011;7347;50.844;4.490;2023-04-06T19:59:21;4.97;;;2.57;;
14520;SDS011;7347;50.844;4.490;2023-04-06T20:01:48;7.03;;;2.43;;
14520;SDS011;7347;50.844;4.490;2023-04-06T20:04:15;8.33;;;3.17;;
14520;SDS011;7347;50.844;4.490;2023-04-06T20:06:42;6.97;;;2.77;;
14520;SDS011;7347;50.844;4.490;2023-04-06T20:09:08;5.77;;;2.33;;
14520;SDS011;7347;50.844;4.490;2023-04-06T20:11:36;7.37;;;2.67;;
14520;SDS011;7347;50.844;4.490;2023-04-06T20:14:04;4.60;;;2.53;;
14520;SDS011;7347;50.844;4.490;2023-04-06T20:16:31;4.83;;;2.37;;
14520;SDS011;7347;50.844;4.490;2023-04-06T20:18:58;4.80;;;2.33;;
14520;SDS011;7347;50.844;4.490;2023-04-06T20:21:25;4.87;;;2.77;;
14520;SDS011;7347;50.844;4.490;2023-04-06T20:23:52;10.57;;;2.90;;
14520;SDS011;7347;50.844;4.490;2023-04-06T20:26:18;5.17;;;3.03;;
